Time;durP1;ratioP1;P1;durP2;ratioP2;P2;SDS_P1;SDS_P2;PMS_P1;PMS_P2;Temp;Humidity;BMP_temperature;BMP_pressure;BME280_temperature;BME280_humidity;BME280_pressure;Samples;Min_cycle;Max_cycle;Signal;HPM_P1;HPM_P2
2023/10/15 00:01:28;;;;;;;10.48;2.85;;;6.90;99.90;;;;;;5066052;28;20033;-57
2023/10/15 00:03:53;;;;;;;13.30;2.92;;;6.80;99.90;;;;;;5063390;28;20117;-54
2023/10/15 00:06:19;;;;;;;11.38;2.28;;;6.80;99.90;;;;;;5065099;28;20024;-55
2023/10/15 00:08:44;;;;;;;15.48;2.72;;;6.80;99.90;;;;;;5070212;28;20428;-54
2023/10/15 00:11:14;;;;;;;8.57;2.38;;;6.80;99.90;;;;;;5065657;28;20433;-58
2023/10/15 00:13:39;;;;;;;13.02;2.83;;;6.80;99.90;;;;;;5058922;28;20438;-54
2023/10/15 00:16:06;;;;;;;8.75;2.35;;;6.80;99.90;;;;;;5061711;28;20020;-56
2023/10/15 00:18:32;;;;;;;9.80;2.53;;;6.80;99.90;;;;;;5054399;28;20087;-54
2023/10/15 00:21:11;;;;;;;5.40;2.13;;;6.80;99.90;;;;;;5066106;28;20032;-53
2023/10/15 00:23:37;;;;;;;7.38;2.25;;;6.90;99.90;;;;;;5057107;28;20112;-57
2023/10/15 00:26:04;;;;;;;22.08;2.85;;;6.80;99.90;;;;;;5059536;28;20133;-58
2023/10/15 00:28:30;;;;;;;7.03;2.42;;;6.70;99.90;;;;;;5061787;28;20020;-56
2023/10/15 00:30:56;;;;;;;12.10;2.47;;;6.70;99.90;;;;;;5061925;28;20731;-53
2023/10/15 00:33:21;;;;;;;9.82;3.05;;;6.80;99.90;;;;;;5063432;28;20482;-57
2023/10/15 00:35:53;;;;;;;9.88;2.67;;;6.80;99.90;;;;;;5064840;28;20024;-55
2023/10/15 00:38:19;;;;;;;17.33;2.50;;;6.80;99.90;;;;;;5061473;28;20096;-56
2023/10/15 00:40:46;;;;;;;14.18;3.20;;;6.80;99.90;;;;;;5067829;28;20116;-54
2023/10/15 00:43:17;;;;;;;6.10;2.53;;;6.80;99.90;;;;;;5060407;28;20020;-54
2023/10/15 00:45:45;;;;;;;12.82;2.90;;;6.80;99.90;;;;;;5055604;28;20518;-56
2023/10/15 00:48:22;;;;;;;8.60;2.75;;;6.80;99.90;;;;;;5057418;28;20099;-53
2023/10/15 00:50:49;;;;;;;15.57;3.78;;;6.80;99.90;;;;;;5066887;28;20024;-56
2023/10/15 00:53:24;;;;;;;16.85;4.72;;;6.80;99.90;;;;;;5063468;28;20111;-57
2023/10/15 00:55:52;;;;;;;14.75;4.05;;;6.70;99.90;;;;;;5052037;28;20025;-56
2023/10/15 01:03:57;;;;;;;11.80;3.45;;;6.60;99.90;;;;;;5061432;28;20036;-53
2023/10/15 01:09:09;;;;;;;13.82;3.13;;;6.60;99.90;;;;;;5063699;28;20082;-55
2023/10/15 01:11:44;;;;;;;11.13;2.70;;;6.60;99.90;;;;;;5061839;28;20029;-53
2023/10/15 01:14:13;;;;;;;;;;;6.70;99.90;;;;;;5061402;28;20132;-59
2023/10/15 01:16:40;;;;;;;8.95;3.55;;;6.60;99.90;;;;;;5061556;28;19920;-53
2023/10/15 01:19:15;;;;;;;14.98;3.72;;;6.40;99.90;;;;;;5058170;28;20033;-56
2023/10/15 01:21:53;;;;;;;16.90;3.53;;;6.50;99.90;;;;;;5059565;28;20474;-53
2023/10/15 01:24:20;;;;;;;15.60;3.63;;;6.40;99.90;;;;;;5060723;28;20032;-53
2023/10/15 01:29:34;;;;;;;12.93;3.65;;;6.40;99.90;;;;;;5056081;28;20035;-59
2023/10/15 01:32:07;;;;;;;10.68;3.35;;;6.30;99.90;;;;;;5059675;28;20036;-55
2023/10/15 01:34:41;;;;;;;9.07;3.40;;;6.30;99.90;;;;;;5062048;28;20037;-54
2023/10/15 01:37:15;;;;;;;11.20;3.08;;;6.30;99.90;;;;;;5062185;28;20286;-58
2023/10/15 01:39:52;;;;;;;;;;;6.20;99.90;;;;;;5058185;28;20115;-60
2023/10/15 01:53:04;;;;;;;8.57;2.95;;;6.20;99.90;;;;;;5052140;28;20068;-57
2023/10/15 01:55:30;;;;;;;11.63;3.63;;;6.20;99.90;;;;;;5059187;28;20550;-58
2023/10/15 01:58:00;;;;;;;10.23;3.28;;;6.10;99.90;;;;;;5057269;28;20033;-60
2023/10/15 02:03:04;;;;;;;10.07;3.08;;;6.10;99.90;;;;;;5051720;28;20136;-58
2023/10/15 02:05:42;;;;;;;16.35;3.42;;;6.10;99.90;;;;;;5062151;28;20052;-59
2023/10/15 02:08:09;;;;;;;11.85;2.80;;;6.00;99.90;;;;;;5060039;28;20013;-56
2023/10/15 02:10:38;;;;;;;15.60;3.92;;;6.00;99.90;;;;;;5063397;28;20033;-57
2023/10/15 02:13:04;;;;;;;8.13;3.10;;;6.00;99.90;;;;;;5054405;28;20017;-56
2023/10/15 02:15:41;;;;;;;9.02;3.13;;;6.00;99.90;;;;;;5060846;28;20379;-54
2023/10/15 02:18:08;;;;;;;7.68;3.30;;;6.00;99.90;;;;;;5062318;28;20028;-55
2023/10/15 02:20:44;;;;;;;8.82;3.22;;;6.00;99.90;;;;;;5064397;28;20552;-56
2023/10/15 02:23:09;;;;;;;16.15;3.20;;;6.00;99.90;;;;;;5063237;28;20406;-56
2023/10/15 02:25:41;;;;;;;17.60;4.20;;;6.00;99.90;;;;;;5056615;28;20113;-52
2023/10/15 02:28:09;;;;;;;8.77;3.10;;;6.00;99.90;;;;;;5066759;28;20025;-58
2023/10/15 02:30:35;;;;;;;11.48;2.80;;;5.90;99.90;;;;;;5058838;28;20264;-58
2023/10/15 02:33:01;;;;;;;8.25;3.28;;;6.00;99.90;;;;;;5067857;28;20393;-57
2023/10/15 02:35:38;;;;;;;10.68;3.58;;;6.00;99.90;;;;;;5072732;28;20051;-53
2023/10/15 02:38:08;;;;;;;9.15;2.85;;;6.00;99.90;;;;;;5066085;28;20498;-55
2023/10/15 02:40:55;;;;;;;20.08;3.38;;;6.10;99.90;;;;;;5065637;28;20037;-53
2023/10/15 02:43:24;;;;;;;13.32;3.45;;;6.10;99.90;;;;;;5061738;28;20024;-57
2023/10/15 02:45:50;;;;;;;19.52;3.17;;;6.20;99.90;;;;;;5061971;28;20090;-56
2023/10/15 02:48:19;;;;;;;10.13;2.60;;;6.10;99.90;;;;;;5064063;28;20024;-58
2023/10/15 02:50:58;;;;;;;13.25;2.85;;;6.20;99.90;;;;;;5059209;28;20024;-58
2023/10/15 02:53:25;;;;;;;8.90;2.42;;;6.40;99.90;;;;;;5071784;28;20032;-57
2023/10/15 02:55:52;;;;;;;6.97;2.63;;;6.40;99.90;;;;;;5058960;28;20033;-57
2023/10/15 02:58:22;;;;;;;15.63;2.85;;;6.50;99.90;;;;;;5063489;28;20025;-57
2023/10/15 03:00:51;;;;;;;15.10;3.63;;;6.60;99.90;;;;;;5059094;28;20040;-58
2023/10/15 03:03:22;;;;;;;14.95;3.10;;;6.80;99.90;;;;;;5064822;28;20028;-58
2023/10/15 03:05:49;;;;;;;10.02;2.72;;;6.80;99.90;;;;;;5056111;28;20017;-54
2023/10/15 03:08:20;;;;;;;18.40;3.45;;;7.00;99.90;;;;;;5062961;28;20459;-52
2023/10/15 03:10:47;;;;;;;13.40;3.20;;;7.20;99.90;;;;;;5059102;28;20114;-58
2023/10/15 03:13:14;;;;;;;17.23;3.35;;;7.30;99.90;;;;;;5065831;28;20154;-57
2023/10/15 03:15:48;;;;;;;13.13;2.42;;;7.40;99.90;;;;;;5057025;28;20028;-57
2023/10/15 03:18:28;;;;;;;11.27;2.83;;;7.40;99.90;;;;;;5064344;28;20108;-53
2023/10/15 03:21:10;;;;;;;23.63;2.72;;;7.40;99.90;;;;;;5063510;28;20032;-56
2023/10/15 03:23:36;;;;;;;7.35;2.30;;;7.50;99.90;;;;;;5058059;28;20091;-54
2023/10/15 03:26:02;;;;;;;9.70;2.50;;;7.50;99.90;;;;;;5064783;28;20478;-58
2023/10/15 03:28:28;;;;;;;10.52;2.40;;;7.60;99.90;;;;;;5052634;28;20017;-57
2023/10/15 03:30:55;;;;;;;11.88;3.33;;;7.60;99.90;;;;;;5059796;28;20074;-57
2023/10/15 03:33:24;;;;;;;17.58;2.58;;;7.60;99.90;;;;;;5059701;28;20032;-59
2023/10/15 03:35:55;;;;;;;8.88;2.45;;;7.70;99.90;;;;;;5062617;28;20108;-58
2023/10/15 03:38:32;;;;;;;8.02;2.40;;;7.70;99.90;;;;;;5064585;28;20034;-57
2023/10/15 03:41:11;;;;;;;13.07;2.85;;;7.80;99.90;;;;;;5058323;28;20033;-58
2023/10/15 03:43:37;;;;;;;13.55;3.40;;;7.80;99.90;;;;;;5064026;28;20025;-55
2023/10/15 03:46:21;;;;;;;13.13;2.78;;;7.80;99.90;;;;;;5055575;28;20027;-57
2023/10/15 03:48:50;;;;;;;17.73;3.10;;;7.80;99.90;;;;;;5059542;28;20013;-59
2023/10/15 03:51:20;;;;;;;14.05;3.45;;;7.90;99.90;;;;;;5055472;28;20037;-57
2023/10/15 03:53:49;;;;;;;11.15;3.75;;;7.90;99.90;;;;;;5064078;28;20850;-55
2023/10/15 03:56:19;;;;;;;13.32;3.47;;;7.90;99.90;;;;;;5056876;28;20025;-58
2023/10/15 03:58:45;;;;;;;16.50;3.40;;;7.90;99.90;;;;;;5068922;28;20098;-57
2023/10/15 04:01:17;;;;;;;17.98;3.10;;;7.90;99.90;;;;;;5057388;28;20033;-56
2023/10/15 04:03:47;;;;;;;7.95;2.60;;;7.90;99.90;;;;;;5063330;28;20038;-59
2023/10/15 04:06:13;;;;;;;6.88;2.42;;;8.00;99.90;;;;;;5061891;28;20519;-53
2023/10/15 04:08:39;;;;;;;12.20;2.47;;;8.00;99.90;;;;;;5059543;28;20050;-57
2023/10/15 04:11:06;;;;;;;12.15;3.00;;;8.00;99.90;;;;;;5062944;28;20656;-55
2023/10/15 04:13:32;;;;;;;15.20;2.80;;;7.90;99.90;;;;;;5064049;28;20033;-56
2023/10/15 04:15:58;;;;;;;17.15;2.72;;;8.00;99.90;;;;;;5064306;28;20111;-60
2023/10/15 04:18:24;;;;;;;13.60;3.15;;;8.00;99.90;;;;;;5064276;28;20024;-55
2023/10/15 04:20:55;;;;;;;16.50;3.20;;;7.90;99.90;;;;;;5056585;28;20033;-54
2023/10/15 04:23:34;;;;;;;14.30;2.85;;;7.90;99.90;;;;;;5062923;28;20368;-57
2023/10/15 04:26:07;;;;;;;23.05;4.05;;;7.90;99.90;;;;;;5059457;28;20020;-60
2023/10/15 04:28:33;;;;;;;13.57;3.17;;;8.00;99.90;;;;;;5059895;28;20391;-59
2023/10/15 04:31:00;;;;;;;14.88;3.40;;;7.90;99.90;;;;;;5064722;28;20020;-59
2023/10/15 04:33:28;;;;;;;12.13;2.90;;;8.00;99.90;;;;;;5063863;28;20036;-58
2023/10/15 04:35:56;;;;;;;15.50;3.35;;;8.00;99.90;;;;;;5057060;28;20025;-59
2023/10/15 04:38:22;;;;;;;11.30;2.90;;;8.00;99.90;;;;;;5058509;28;20079;-57
2023/10/15 04:43:25;;;;;;;16.67;2.97;;;8.00;99.90;;;;;;5057690;28;20039;-60
2023/10/15 04:45:51;;;;;;;13.68;3.65;;;8.10;99.90;;;;;;5053559;28;20025;-59
2023/10/15 04:48:26;;;;;;;13.32;2.53;;;8.10;99.90;;;;;;5063685;28;20020;-58
2023/10/15 04:50:51;;;;;;;9.70;2.53;;;8.20;99.90;;;;;;5057857;28;20487;-59
2023/10/15 04:53:30;;;;;;;10.15;2.83;;;8.20;99.90;;;;;;5056860;28;20108;-57
2023/10/15 04:55:56;;;;;;;12.25;2.78;;;8.20;99.90;;;;;;5067063;28;20398;-58
2023/10/15 04:58:27;;;;;;;8.93;2.90;;;8.30;99.90;;;;;;5055919;28;20057;-58
2023/10/15 05:00:54;;;;;;;18.60;3.50;;;8.30;99.90;;;;;;5066590;28;20033;-54
2023/10/15 05:03:23;;;;;;;6.50;2.28;;;8.30;99.90;;;;;;5063238;28;20037;-53
2023/10/15 05:05:49;;;;;;;8.57;3.00;;;8.30;99.90;;;;;;5061445;28;20026;-56
2023/10/15 05:08:17;;;;;;;10.98;2.72;;;8.30;99.90;;;;;;5060913;28;20017;-59
2023/10/15 05:10:45;;;;;;;13.00;2.67;;;8.30;99.90;;;;;;5067360;28;20093;-57
2023/10/15 05:13:11;;;;;;;16.83;3.05;;;8.30;99.90;;;;;;5058101;28;20024;-52
2023/10/15 05:15:38;;;;;;;13.52;2.90;;;8.30;99.90;;;;;;5059680;28;20027;-55
2023/10/15 05:18:04;;;;;;;13.95;2.67;;;8.30;99.90;;;;;;5066336;28;20022;-54
2023/10/15 05:20:31;;;;;;;6.50;2.67;;;8.30;99.90;;;;;;5056429;28;20056;-52
2023/10/15 05:22:56;;;;;;;12.60;2.63;;;8.30;99.90;;;;;;5055985;28;20513;-55
2023/10/15 05:25:22;;;;;;;12.18;2.67;;;8.20;99.90;;;;;;5060261;28;20025;-56
2023/10/15 05:27:51;;;;;;;17.65;3.47;;;8.20;99.90;;;;;;5062036;28;20039;-55
2023/10/15 05:30:17;;;;;;;18.58;2.60;;;8.20;99.90;;;;;;5058355;28;20035;-55
2023/10/15 05:32:44;;;;;;;11.75;2.92;;;8.20;99.90;;;;;;5058930;28;20039;-59
2023/10/15 05:35:10;;;;;;;9.65;2.22;;;8.20;99.90;;;;;;5060383;28;20029;-61
2023/10/15 05:37:41;;;;;;;11.27;2.72;;;8.20;99.90;;;;;;5056207;28;20526;-59
2023/10/15 05:40:08;;;;;;;10.68;2.67;;;8.20;99.90;;;;;;5060749;28;20035;-59
2023/10/15 05:42:35;;;;;;;5.85;2.13;;;8.20;99.90;;;;;;5065725;28;20033;-58
2023/10/15 05:45:01;;;;;;;8.40;2.35;;;8.20;99.90;;;;;;5053061;28;20057;-59
2023/10/15 05:47:28;;;;;;;7.25;2.45;;;8.20;99.90;;;;;;5052692;28;20057;-58
2023/10/15 05:49:54;;;;;;;13.48;2.83;;;8.20;99.90;;;;;;5057243;28;20032;-57
2023/10/15 05:52:20;;;;;;;6.35;2.10;;;8.20;99.90;;;;;;5061371;28;20028;-56
2023/10/15 05:54:47;;;;;;;7.90;2.20;;;8.20;99.90;;;;;;5058680;28;20109;-53
2023/10/15 05:57:13;;;;;;;10.07;2.25;;;8.20;99.90;;;;;;5059033;28;20386;-57
2023/10/15 05:59:39;;;;;;;11.93;2.83;;;8.20;99.90;;;;;;5053490;28;20449;-59
2023/10/15 06:02:04;;;;;;;7.65;3.53;;;8.10;99.90;;;;;;5061333;28;20086;-59
2023/10/15 06:04:30;;;;;;;12.65;2.72;;;8.10;99.90;;;;;;5061977;28;20029;-59
2023/10/15 06:06:57;;;;;;;14.25;2.75;;;8.10;99.90;;;;;;5067018;28;20033;-58
2023/10/15 06:09:23;;;;;;;9.00;2.55;;;8.10;99.90;;;;;;5060482;28;20025;-57
2023/10/15 06:11:49;;;;;;;10.82;2.60;;;8.10;99.90;;;;;;5060950;28;20029;-57
2023/10/15 06:14:15;;;;;;;11.20;3.55;;;8.10;99.90;;;;;;5057771;28;20027;-56
2023/10/15 06:16:41;;;;;;;10.13;2.80;;;8.10;99.90;;;;;;5061527;28;20033;-57
2023/10/15 06:19:09;;;;;;;10.02;3.15;;;8.00;99.90;;;;;;5059493;28;20033;-57
2023/10/15 06:21:35;;;;;;;17.67;3.17;;;8.00;99.90;;;;;;5060543;28;20513;-57
2023/10/15 06:24:00;;;;;;;7.70;2.72;;;8.00;99.90;;;;;;5064017;28;20024;-61
2023/10/15 06:26:26;;;;;;;6.20;2.42;;;8.00;99.90;;;;;;5067834;28;20104;-59
2023/10/15 06:28:51;;;;;;;8.88;3.42;;;8.00;99.90;;;;;;5056743;28;20025;-57
2023/10/15 06:31:17;;;;;;;14.82;3.83;;;8.10;99.90;;;;;;5059800;28;20392;-55
2023/10/15 06:33:42;;;;;;;16.00;3.67;;;8.10;99.90;;;;;;5060229;28;20032;-54
2023/10/15 06:36:08;;;;;;;8.02;3.28;;;8.10;99.90;;;;;;5063859;28;20020;-56
2023/10/15 06:38:33;;;;;;;12.25;2.88;;;8.10;99.90;;;;;;5058857;28;20028;-55
2023/10/15 06:41:00;;;;;;;10.35;2.53;;;8.00;99.90;;;;;;5067047;28;20498;-56
2023/10/15 06:43:26;;;;;;;7.20;2.85;;;7.90;99.90;;;;;;5060611;28;20027;-59
2023/10/15 06:45:52;;;;;;;8.95;2.90;;;7.90;99.90;;;;;;5057620;28;20025;-59
2023/10/15 06:48:22;;;;;;;14.75;2.85;;;7.90;99.90;;;;;;5059055;28;20032;-55
2023/10/15 06:50:48;;;;;;;12.32;3.90;;;8.00;99.90;;;;;;5061707;28;20040;-59
2023/10/15 06:53:13;;;;;;;9.93;3.42;;;8.00;99.90;;;;;;5059144;28;20640;-59
2023/10/15 06:55:39;;;;;;;6.97;3.85;;;8.00;99.90;;;;;;5064397;28;20037;-57
2023/10/15 06:58:05;;;;;;;10.27;3.67;;;8.00;99.90;;;;;;5063626;28;20035;-59
2023/10/15 07:00:31;;;;;;;9.75;4.70;;;8.00;99.90;;;;;;5057327;28;20445;-58
2023/10/15 07:02:57;;;;;;;10.93;3.65;;;8.10;99.90;;;;;;5064720;28;20077;-59
2023/10/15 07:05:25;;;;;;;7.95;3.47;;;8.20;99.90;;;;;;5063554;28;20099;-58
2023/10/15 07:07:51;;;;;;;9.32;3.85;;;8.20;99.90;;;;;;5056662;28;20032;-57
2023/10/15 07:10:17;;;;;;;6.13;3.47;;;8.00;99.90;;;;;;5061068;28;20077;-56
2023/10/15 07:12:50;;;;;;;11.43;4.20;;;8.10;99.90;;;;;;5060699;28;20037;-58
2023/10/15 07:15:17;;;;;;;17.10;4.43;;;8.10;99.90;;;;;;5055692;28;20029;-59
2023/10/15 07:17:44;;;;;;;10.80;4.32;;;8.10;99.90;;;;;;5062098;28;20029;-57
2023/10/15 07:20:14;;;;;;;10.93;4.13;;;8.10;99.90;;;;;;5058243;28;20033;-59
2023/10/15 07:22:46;;;;;;;11.48;4.05;;;8.10;99.90;;;;;;5059079;28;20032;-58
2023/10/15 07:25:13;;;;;;;12.40;3.92;;;8.10;99.90;;;;;;5057731;28;20029;-57
2023/10/15 07:27:42;;;;;;;8.57;4.20;;;8.00;99.90;;;;;;5060705;28;20039;-54
2023/10/15 07:30:12;;;;;;;12.45;3.47;;;8.10;99.90;;;;;;5065116;28;20024;-59
2023/10/15 07:32:40;;;;;;;13.75;4.57;;;8.10;99.90;;;;;;5065215;28;20075;-54
2023/10/15 07:35:07;;;;;;;8.98;4.18;;;8.10;99.90;;;;;;5057341;28;20025;-59
2023/10/15 07:37:34;;;;;;;12.55;5.05;;;8.20;99.90;;;;;;5060900;28;20036;-57
2023/10/15 07:40:05;;;;;;;8.95;4.95;;;8.20;99.90;;;;;;5061787;28;20025;-55
2023/10/15 07:42:32;;;;;;;10.00;5.28;;;8.20;99.90;;;;;;5054116;28;20426;-58
2023/10/15 07:44:59;;;;;;;11.38;5.60;;;8.30;99.90;;;;;;5060233;28;20029;-58
2023/10/15 07:47:25;;;;;;;11.13;5.53;;;8.40;99.90;;;;;;5060188;28;20024;-56
2023/10/15 07:49:51;;;;;;;10.60;5.22;;;8.50;99.90;;;;;;5059335;28;20032;-55
2023/10/15 07:52:16;;;;;;;11.88;5.28;;;8.50;99.90;;;;;;5057263;28;20039;-56
2023/10/15 07:54:42;;;;;;;10.90;5.82;;;8.50;99.90;;;;;;5058193;28;20035;-58
2023/10/15 07:57:10;;;;;;;7.20;4.53;;;8.60;99.90;;;;;;5061626;28;20029;-60
2023/10/15 07:59:36;;;;;;;7.63;4.50;;;8.50;99.90;;;;;;5062754;28;20078;-60
2023/10/15 08:02:03;;;;;;;15.48;5.22;;;8.60;99.90;;;;;;5064079;28;20036;-61
2023/10/15 08:04:29;;;;;;;6.72;4.57;;;8.70;99.90;;;;;;5059826;28;20545;-60
2023/10/15 08:06:54;;;;;;;12.07;4.53;;;8.70;99.90;;;;;;5062695;28;20036;-59
2023/10/15 08:09:21;;;;;;;10.13;5.07;;;8.70;99.90;;;;;;5065290;28;20025;-61
2023/10/15 08:11:47;;;;;;;9.48;5.28;;;8.70;99.90;;;;;;5062087;28;20029;-58
2023/10/15 08:14:12;;;;;;;8.70;5.20;;;8.70;99.90;;;;;;5065458;28;20549;-60
2023/10/15 08:16:38;;;;;;;12.05;5.57;;;8.60;99.90;;;;;;5062301;28;20114;-56
2023/10/15 08:19:04;;;;;;;8.48;5.43;;;8.70;99.90;;;;;;5059107;28;20037;-59
2023/10/15 08:21:30;;;;;;;16.38;5.55;;;8.80;99.90;;;;;;5059229;28;20040;-59
2023/10/15 08:23:55;;;;;;;10.45;5.03;;;8.70;99.90;;;;;;5063284;28;20387;-61
2023/10/15 08:26:21;;;;;;;19.30;5.20;;;8.70;99.90;;;;;;5058270;28;20723;-59
2023/10/15 08:28:48;;;;;;;7.85;4.50;;;8.80;99.90;;;;;;5058635;28;20072;-59
2023/10/15 08:31:14;;;;;;;7.60;4.30;;;8.80;99.90;;;;;;5059577;28;20024;-60
2023/10/15 08:33:40;;;;;;;9.00;4.28;;;8.80;99.90;;;;;;5058787;28;20501;-59
2023/10/15 08:36:07;;;;;;;12.15;4.07;;;8.80;99.90;;;;;;5061033;28;20028;-59
2023/10/15 08:38:34;;;;;;;6.10;4.13;;;8.80;99.90;;;;;;5059559;28;20166;-59
2023/10/15 08:41:04;;;;;;;10.57;4.03;;;8.80;99.90;;;;;;5056918;28;20036;-61
2023/10/15 08:43:32;;;;;;;8.82;4.30;;;8.80;99.90;;;;;;5057156;28;20033;-60
2023/10/15 08:45:58;;;;;;;9.90;4.22;;;8.80;99.90;;;;;;5058336;28;20028;-60
2023/10/15 08:48:25;;;;;;;18.90;4.30;;;8.80;99.90;;;;;;5061531;28;20506;-61
2023/10/15 08:50:53;;;;;;;12.77;3.85;;;9.00;99.90;;;;;;5058587;28;20059;-61
2023/10/15 08:53:22;;;;;;;10.15;3.72;;;9.00;99.90;;;;;;5062431;28;20023;-60
2023/10/15 08:55:49;;;;;;;10.07;3.47;;;8.90;99.90;;;;;;5058020;28;20028;-59
2023/10/15 08:58:15;;;;;;;7.03;3.35;;;8.90;99.90;;;;;;5057890;28;20643;-61
2023/10/15 09:00:43;;;;;;;5.95;3.63;;;9.00;99.90;;;;;;5060325;28;20028;-58
2023/10/15 09:03:13;;;;;;;10.30;3.40;;;9.00;99.90;;;;;;5059951;28;20016;-57
2023/10/15 09:05:42;;;;;;;8.80;3.58;;;9.00;99.90;;;;;;5061769;28;20078;-61
2023/10/15 09:08:10;;;;;;;16.15;4.38;;;9.10;99.90;;;;;;5063683;28;20090;-61
2023/10/15 09:10:37;;;;;;;8.18;3.38;;;9.20;99.90;;;;;;5057972;28;20029;-60
2023/10/15 09:13:05;;;;;;;6.07;2.90;;;9.20;99.90;;;;;;5063037;28;20422;-57
2023/10/15 09:15:30;;;;;;;11.60;3.30;;;9.10;99.90;;;;;;5064573;28;20044;-61
2023/10/15 09:17:59;;;;;;;7.47;2.55;;;9.10;99.90;;;;;;5060608;28;20029;-61
2023/10/15 09:20:27;;;;;;;6.00;2.67;;;9.10;99.90;;;;;;5062775;28;20032;-59
2023/10/15 09:22:59;;;;;;;5.10;1.70;;;9.10;99.90;;;;;;5067714;28;20029;-61
2023/10/15 09:25:26;;;;;;;4.32;2.08;;;9.10;99.90;;;;;;5063981;28;20031;-60
2023/10/15 09:27:55;;;;;;;3.70;1.80;;;9.10;99.90;;;;;;5062334;28;20027;-57
2023/10/15 09:30:22;;;;;;;2.92;1.73;;;9.10;99.90;;;;;;5064277;28;20043;-57
2023/10/15 09:32:48;;;;;;;5.05;2.10;;;9.20;99.90;;;;;;5061929;28;20055;-59
2023/10/15 09:35:14;;;;;;;6.13;1.73;;;9.20;99.90;;;;;;5064980;28;20082;-60
2023/10/15 09:37:41;;;;;;;4.88;2.10;;;9.10;99.90;;;;;;5066777;28;20525;-60
2023/10/15 09:40:10;;;;;;;4.30;2.22;;;9.20;99.90;;;;;;5063322;28;20028;-62
2023/10/15 09:42:38;;;;;;;3.63;2.20;;;9.30;99.90;;;;;;5065509;28;20029;-60
2023/10/15 09:45:06;;;;;;;3.22;2.03;;;9.50;99.90;;;;;;5066715;28;20754;-60
2023/10/15 09:47:33;;;;;;;5.55;2.30;;;9.80;99.90;;;;;;5066450;28;20498;-61
2023/10/15 09:50:01;;;;;;;9.05;3.17;;;9.80;99.90;;;;;;5066215;28;20111;-59
2023/10/15 09:52:29;;;;;;;2.03;1.55;;;9.80;99.90;;;;;;5067336;28;20025;-57
2023/10/15 09:54:56;;;;;;;4.30;2.00;;;9.70;99.90;;;;;;5059984;28;20033;-60
2023/10/15 09:57:25;;;;;;;4.93;2.08;;;9.80;99.90;;;;;;5065596;28;20041;-56
2023/10/15 09:59:53;;;;;;;2.13;1.45;;;9.80;99.90;;;;;;5067259;28;20081;-60
2023/10/15 10:02:32;;;;;;;2.80;1.30;;;9.60;99.90;;;;;;5064232;28;20035;-61
2023/10/15 10:05:49;;;;;;;5.70;1.30;;;9.60;99.90;;;;;;5063353;28;20043;-60
2023/10/15 10:08:29;;;;;;;5.47;1.30;;;9.70;99.90;;;;;;5061486;28;20037;-59
2023/10/15 10:11:23;;;;;;;2.95;1.33;;;9.60;99.90;;;;;;5060224;28;20053;-60
2023/10/15 10:14:15;;;;;;;3.03;1.15;;;9.60;99.90;;;;;;5064714;28;20035;-59
2023/10/15 10:16:42;;;;;;;7.68;1.65;;;9.60;99.90;;;;;;5069276;28;20025;-60
2023/10/15 10:19:08;;;;;;;1.20;1.08;;;9.70;99.90;;;;;;5069119;28;20028;-60
2023/10/15 10:21:34;;;;;;;2.45;1.42;;;9.70;99.90;;;;;;5067909;28;20027;-54
2023/10/15 10:24:02;;;;;;;5.55;1.55;;;9.80;99.90;;;;;;5066114;28;20031;-60
2023/10/15 10:26:32;;;;;;;8.02;1.55;;;9.80;99.90;;;;;;5068329;28;20046;-59
2023/10/15 10:28:59;;;;;;;3.53;1.58;;;9.90;99.90;;;;;;5064210;28;20027;-62
2023/10/15 10:31:28;;;;;;;4.10;1.65;;;10.00;99.90;;;;;;5065116;28;20051;-61
2023/10/15 10:33:56;;;;;;;6.80;1.88;;;9.90;99.90;;;;;;5063451;28;20024;-61
2023/10/15 10:36:27;;;;;;;5.50;1.80;;;9.90;99.90;;;;;;5061014;28;20498;-60
2023/10/15 10:38:56;;;;;;;6.78;2.00;;;9.90;99.90;;;;;;5065841;28;20063;-62
2023/10/15 10:41:33;;;;;;;5.63;2.20;;;10.00;99.90;;;;;;5067468;28;20039;-57
2023/10/15 10:43:58;;;;;;;3.03;1.83;;;10.00;99.90;;;;;;5063583;28;20059;-59
2023/10/15 10:46:24;;;;;;;6.18;2.58;;;10.00;99.90;;;;;;5061653;28;20058;-61
2023/10/15 10:49:13;;;;;;;4.95;2.38;;;10.00;99.90;;;;;;5065835;28;20025;-60
2023/10/15 10:51:40;;;;;;;5.28;2.30;;;10.10;99.90;;;;;;5063586;28;20111;-59
2023/10/15 10:54:05;;;;;;;3.40;1.65;;;10.00;99.90;;;;;;5071116;28;20013;-61
2023/10/15 10:56:40;;;;;;;6.93;2.33;;;9.90;99.90;;;;;;5058446;28;20029;-61
2023/10/15 10:59:06;;;;;;;;;;;10.00;99.90;;;;;;5055542;28;20528;-62
2023/10/15 11:01:37;;;;;;;4.80;1.98;;;10.20;99.90;;;;;;5060269;28;19916;-60
2023/10/15 11:04:10;;;;;;;5.25;2.72;;;10.30;99.90;;;;;;5066028;28;20028;-60
2023/10/15 11:06:42;;;;;;;6.95;2.05;;;10.40;99.90;;;;;;5055657;28;20521;-60
2023/10/15 11:09:15;;;;;;;4.63;2.33;;;10.40;99.90;;;;;;5057828;28;20032;-61
2023/10/15 11:11:52;;;;;;;4.63;2.42;;;10.40;99.90;;;;;;5055117;28;20402;-60
2023/10/15 11:14:23;;;;;;;8.63;2.90;;;10.30;99.90;;;;;;5056927;28;20067;-62
2023/10/15 11:16:49;;;;;;;4.57;2.10;;;10.20;99.90;;;;;;5057200;28;20037;-61
2023/10/15 11:19:19;;;;;;;5.25;2.33;;;10.20;99.90;;;;;;5062571;28;20040;-61
2023/10/15 11:21:46;;;;;;;6.35;2.45;;;10.10;99.90;;;;;;5062940;28;20027;-61
2023/10/15 11:24:12;;;;;;;2.80;2.13;;;10.00;99.90;;;;;;5057407;28;20115;-58
2023/10/15 11:26:42;;;;;;;6.45;1.90;;;10.10;99.90;;;;;;5055223;28;20031;-60
2023/10/15 11:29:09;;;;;;;6.15;1.90;;;10.20;99.90;;;;;;5052319;28;20020;-59
2023/10/15 11:31:43;;;;;;;12.00;2.30;;;10.20;99.90;;;;;;5055008;28;20048;-59
2023/10/15 11:34:12;;;;;;;12.38;2.38;;;10.30;99.90;;;;;;5061124;28;20025;-58
2023/10/15 11:36:39;;;;;;;10.90;2.47;;;10.20;99.90;;;;;;5056597;28;20115;-60
2023/10/15 11:39:08;;;;;;;4.43;2.47;;;10.20;99.90;;;;;;5058820;28;20038;-60
2023/10/15 11:41:36;;;;;;;4.80;2.70;;;10.40;99.90;;;;;;5058022;28;20033;-60
2023/10/15 11:44:04;;;;;;;7.57;2.95;;;10.50;99.90;;;;;;5062550;28;20490;-58
2023/10/15 11:46:30;;;;;;;4.47;2.40;;;10.40;99.90;;;;;;5059436;28;20029;-59
2023/10/15 11:49:00;;;;;;;10.45;1.80;;;10.40;99.90;;;;;;5064731;28;20016;-61
2023/10/15 11:51:29;;;;;;;9.43;1.80;;;10.30;99.90;;;;;;5056027;28;20055;-60
2023/10/15 11:54:02;;;;;;;7.13;1.50;;;10.20;99.90;;;;;;5055191;28;20151;-60
2023/10/15 11:56:31;;;;;;;4.45;1.40;;;10.10;99.90;;;;;;5045747;28;20060;-60
2023/10/15 11:58:57;;;;;;;5.97;1.77;;;10.20;99.90;;;;;;5051109;28;20033;-61
2023/10/15 12:01:24;;;;;;;4.07;1.85;;;10.10;99.90;;;;;;5050281;28;20032;-59
2023/10/15 12:03:50;;;;;;;3.08;1.50;;;10.00;99.90;;;;;;5055546;28;20028;-62
2023/10/15 12:06:18;;;;;;;4.55;1.67;;;9.90;99.90;;;;;;5058411;28;20024;-63
2023/10/15 12:08:44;;;;;;;4.45;1.75;;;9.80;99.90;;;;;;5063180;28;20021;-60
2023/10/15 12:11:10;;;;;;;6.32;1.90;;;9.80;99.90;;;;;;5053136;28;20036;-60
2023/10/15 12:13:35;;;;;;;4.95;1.80;;;9.90;99.90;;;;;;5059272;28;20099;-57
2023/10/15 12:16:02;;;;;;;7.57;2.28;;;9.90;99.90;;;;;;5059340;28;20075;-62
2023/10/15 12:18:28;;;;;;;6.20;2.25;;;10.00;99.90;;;;;;5057409;28;20473;-61
2023/10/15 12:20:53;;;;;;;5.43;2.17;;;10.20;99.90;;;;;;5059335;28;20028;-61
2023/10/15 12:23:20;;;;;;;4.85;1.83;;;10.40;99.90;;;;;;5056784;28;20112;-60
2023/10/15 12:25:46;;;;;;;6.22;2.28;;;;;;;;;;5058430;28;20044;-62
2023/10/15 12:28:12;;;;;;;4.00;1.55;;;11.80;99.90;;;;;;5059612;28;20389;-61
2023/10/15 12:30:37;;;;;;;6.05;1.40;;;12.10;99.90;;;;;;5055946;28;20124;-61
2023/10/15 12:33:03;;;;;;;5.25;1.08;;;12.50;99.90;;;;;;5057973;28;20087;-59
2023/10/15 12:35:28;;;;;;;3.42;1.63;;;12.70;99.90;;;;;;5056474;28;20445;-61
2023/10/15 12:38:05;;;;;;;2.78;1.45;;;12.50;99.90;;;;;;5058014;28;20384;-60
2023/10/15 12:40:38;;;;;;;3.60;1.17;;;12.80;99.90;;;;;;5057430;28;20052;-60
2023/10/15 12:43:11;;;;;;;4.63;1.27;;;;;;;;;;5059374;28;20048;-62
2023/10/15 12:45:37;;;;;;;2.70;1.00;;;13.30;99.90;;;;;;5059611;28;20017;-61
2023/10/15 12:48:05;;;;;;;2.67;1.00;;;12.70;99.90;;;;;;5060980;28;20487;-62
2023/10/15 12:50:30;;;;;;;4.45;0.98;;;12.30;99.90;;;;;;5060137;28;20060;-63
2023/10/15 12:52:58;;;;;;;4.35;1.30;;;12.30;99.90;;;;;;5058323;28;20154;-63
2023/10/15 12:55:23;;;;;;;5.68;1.63;;;12.20;99.90;;;;;;5059523;28;20029;-61
2023/10/15 12:57:50;;;;;;;4.10;0.90;;;12.20;99.90;;;;;;5057738;28;20078;-62
2023/10/15 13:00:22;;;;;;;4.40;1.08;;;12.10;99.90;;;;;;5060320;28;20021;-62
2023/10/15 13:02:49;;;;;;;4.28;1.30;;;12.00;99.90;;;;;;5060850;28;20471;-62
2023/10/15 13:05:19;;;;;;;5.57;1.50;;;12.00;99.90;;;;;;5058550;28;20020;-63
2023/10/15 13:07:45;;;;;;;2.30;0.93;;;12.40;99.90;;;;;;5067243;28;20013;-58
2023/10/15 13:10:13;;;;;;;5.28;1.05;;;12.80;99.90;;;;;;5059301;28;20028;-63
2023/10/15 13:12:39;;;;;;;2.22;0.98;;;12.90;99.90;;;;;;5054860;28;21526;-62
2023/10/15 13:15:10;;;;;;;1.88;0.95;;;12.90;99.90;;;;;;5060474;28;20029;-61
2023/10/15 13:17:36;;;;;;;2.78;0.90;;;13.30;99.90;;;;;;5058025;28;20024;-63
2023/10/15 13:20:06;;;;;;;2.75;1.00;;;13.40;99.90;;;;;;5059651;28;20452;-63
2023/10/15 13:22:33;;;;;;;2.30;1.00;;;13.30;99.90;;;;;;5059746;28;20076;-62
2023/10/15 13:24:59;;;;;;;3.55;1.08;;;13.40;99.90;;;;;;5060035;28;20019;-63
2023/10/15 13:27:25;;;;;;;3.72;0.88;;;13.50;99.90;;;;;;5059256;28;20425;-61